sensor_id;sensor_type;location;lat;lon;timestamp;temperature;humidity
13686;DHT22;6915;48.296;8.874;2022-10-17T00:00:12;11.90;99.90
13686;DHT22;6915;48.296;8.874;2022-10-17T00:02:41;11.90;99.90
13686;DHT22;6915;48.296;8.874;2022-10-17T00:05:08;11.90;99.90
13686;DHT22;6915;48.296;8.874;2022-10-17T00:07:36;11.80;99.90
13686;DHT22;6915;48.296;8.874;2022-10-17T00:10:04;11.80;99.90
13686;DHT22;6915;48.296;8.874;2022-10-17T00:12:31;11.80;99.90
13686;DHT22;6915;48.296;8.874;2022-10-17T00:14:58;11.60;99.90
13686;DHT22;6915;48.296;8.874;2022-10-17T00:17:26;11.70;99.90
13686;DHT22;6915;48.296;8.874;2022-10-17T00:19:53;11.90;99.90
13686;DHT22;6915;48.296;8.874;2022-10-17T00:22:20;11.70;99.90
13686;DHT22;6915;48.296;8.874;2022-10-17T00:24:47;11.70;99.90
13686;DHT22;6915;48.296;8.874;2022-10-17T00:27:14;11.60;99.90
13686;DHT22;6915;48.296;8.874;2022-10-17T00:29:41;11.60;99.90
13686;DHT22;6915;48.296;8.874;2022-10-17T00:32:08;11.50;99.90
13686;DHT22;6915;48.296;8.874;2022-10-17T00:34:36;11.70;99.90
13686;DHT22;6915;48.296;8.874;2022-10-17T00:37:03;11.50;99.90
13686;DHT22;6915;48.296;8.874;2022-10-17T00:39:30;11.50;99.90
13686;DHT22;6915;48.296;8.874;2022-10-17T00:41:57;11.40;99.90
13686;DHT22;6915;48.296;8.874;2022-10-17T00:45:00;11.50;99.90
13686;DHT22;6915;48.296;8.874;2022-10-17T00:47:28;11.40;99.90
13686;DHT22;6915;48.296;8.874;2022-10-17T00:49:57;11.40;99.90
13686;DHT22;6915;48.296;8.874;2022-10-17T00:52:27;11.40;99.90
13686;DHT22;6915;48.296;8.874;2022-10-17T00:54:57;11.30;99.90
13686;DHT22;6915;48.296;8.874;2022-10-17T00:57:25;11.30;99.90
13686;DHT22;6915;48.296;8.874;2022-10-17T00:59:55;11.10;99.90
13686;DHT22;6915;48.296;8.874;2022-10-17T01:02:23;11.10;99.90
13686;DHT22;6915;48.296;8.874;2022-10-17T01:04:51;11.00;99.90
13686;DHT22;6915;48.296;8.874;2022-10-17T01:07:21;11.00;99.90
13686;DHT22;6915;48.296;8.874;2022-10-17T01:09:48;10.90;99.90
13686;DHT22;6915;48.296;8.874;2022-10-17T01:12:19;11.00;99.90
13686;DHT22;6915;48.296;8.874;2022-10-17T01:14:57;11.00;99.90
13686;DHT22;6915;48.296;8.874;2022-10-17T01:17:32;10.90;99.90
13686;DHT22;6915;48.296;8.874;2022-10-17T01:20:33;10.90;99.90
13686;DHT22;6915;48.296;8.874;2022-10-17T01:23:20;10.80;99.90
13686;DHT22;6915;48.296;8.874;2022-10-17T01:25:54;10.70;99.90
13686;DHT22;6915;48.296;8.874;2022-10-17T01:28:35;10.60;99.90
13686;DHT22;6915;48.296;8.874;2022-10-17T01:31:11;10.70;99.90
13686;DHT22;6915;48.296;8.874;2022-10-17T01:33:49;10.60;99.90
13686;DHT22;6915;48.296;8.874;2022-10-17T01:36:26;10.60;99.90
13686;DHT22;6915;48.296;8.874;2022-10-17T01:38:59;10.60;99.90
13686;DHT22;6915;48.296;8.874;2022-10-17T01:41:34;10.50;99.90
13686;DHT22;6915;48.296;8.874;2022-10-17T01:44:06;10.50;99.90
13686;DHT22;6915;48.296;8.874;2022-10-17T01:46:37;10.80;99.90
13686;DHT22;6915;48.296;8.874;2022-10-17T01:49:07;10.50;99.90
13686;DHT22;6915;48.296;8.874;2022-10-17T01:51:37;10.50;99.90
13686;DHT22;6915;48.296;8.874;2022-10-17T01:54:10;10.50;99.90
13686;DHT22;6915;48.296;8.874;2022-10-17T01:56:38;10.40;99.90
13686;DHT22;6915;48.296;8.874;2022-10-17T01:59:11;10.40;99.90
13686;DHT22;6915;48.296;8.874;2022-10-17T02:01:41;10.40;99.90
13686;DHT22;6915;48.296;8.874;2022-10-17T02:04:10;10.40;99.90
13686;DHT22;6915;48.296;8.874;2022-10-17T02:06:37;10.30;99.90
13686;DHT22;6915;48.296;8.874;2022-10-17T02:09:19;10.30;99.90
13686;DHT22;6915;48.296;8.874;2022-10-17T02:11:54;10.30;99.90
13686;DHT22;6915;48.296;8.874;2022-10-17T02:14:30;10.10;99.90
13686;DHT22;6915;48.296;8.874;2022-10-17T02:17:07;10.20;99.90
13686;DHT22;6915;48.296;8.874;2022-10-17T02:19:51;10.20;99.90
13686;DHT22;6915;48.296;8.874;2022-10-17T02:22:26;10.10;99.90
13686;DHT22;6915;48.296;8.874;2022-10-17T02:25:02;10.10;99.90
13686;DHT22;6915;48.296;8.874;2022-10-17T02:27:39;9.90;99.90
13686;DHT22;6915;48.296;8.874;2022-10-17T02:30:11;10.00;99.90
13686;DHT22;6915;48.296;8.874;2022-10-17T02:32:43;10.00;99.90
13686;DHT22;6915;48.296;8.874;2022-10-17T02:35:14;9.90;99.90
13686;DHT22;6915;48.296;8.874;2022-10-17T02:37:42;10.00;99.90
13686;DHT22;6915;48.296;8.874;2022-10-17T02:40:12;10.00;99.90
13686;DHT22;6915;48.296;8.874;2022-10-17T02:42:42;9.90;99.90
13686;DHT22;6915;48.296;8.874;2022-10-17T02:45:11;9.90;99.90
13686;DHT22;6915;48.296;8.874;2022-10-17T02:47:45;9.90;99.90
13686;DHT22;6915;48.296;8.874;2022-10-17T02:50:15;9.80;99.90
13686;DHT22;6915;48.296;8.874;2022-10-17T02:52:45;9.70;99.90
13686;DHT22;6915;48.296;8.874;2022-10-17T02:55:18;9.50;99.90
13686;DHT22;6915;48.296;8.874;2022-10-17T02:57:48;9.70;99.90
13686;DHT22;6915;48.296;8.874;2022-10-17T03:00:17;9.70;99.90
13686;DHT22;6915;48.296;8.874;2022-10-17T03:02:47;9.70;99.90
13686;DHT22;6915;48.296;8.874;2022-10-17T03:05:16;9.60;99.90
13686;DHT22;6915;48.296;8.874;2022-10-17T03:07:44;9.60;99.90
13686;DHT22;6915;48.296;8.874;2022-10-17T03:10:10;9.50;99.90
13686;DHT22;6915;48.296;8.874;2022-10-17T03:12:37;9.70;99.90
13686;DHT22;6915;48.296;8.874;2022-10-17T03:15:05;9.50;99.90
13686;DHT22;6915;48.296;8.874;2022-10-17T03:17:33;9.50;99.90
13686;DHT22;6915;48.296;8.874;2022-10-17T03:20:02;9.60;99.90
13686;DHT22;6915;48.296;8.874;2022-10-17T03:22:29;9.60;99.90
13686;DHT22;6915;48.296;8.874;2022-10-17T03:24:56;9.70;99.90
13686;DHT22;6915;48.296;8.874;2022-10-17T03:27:23;9.80;99.90
13686;DHT22;6915;48.296;8.874;2022-10-17T03:29:50;9.70;99.90
13686;DHT22;6915;48.296;8.874;2022-10-17T03:32:17;9.80;99.90
13686;DHT22;6915;48.296;8.874;2022-10-17T03:34:44;9.50;99.90
13686;DHT22;6915;48.296;8.874;2022-10-17T03:37:12;9.50;99.90
13686;DHT22;6915;48.296;8.874;2022-10-17T03:39:39;9.50;99.90
13686;DHT22;6915;48.296;8.874;2022-10-17T03:42:05;9.40;99.90
13686;DHT22;6915;48.296;8.874;2022-10-17T03:44:32;9.50;99.90
13686;DHT22;6915;48.296;8.874;2022-10-17T03:46:59;9.40;99.90
13686;DHT22;6915;48.296;8.874;2022-10-17T03:49:26;9.40;99.90
13686;DHT22;6915;48.296;8.874;2022-10-17T03:51:53;9.40;99.90
13686;DHT22;6915;48.296;8.874;2022-10-17T03:54:21;9.30;99.90
13686;DHT22;6915;48.296;8.874;2022-10-17T03:56:48;9.30;99.90
13686;DHT22;6915;48.296;8.874;2022-10-17T03:59:16;9.30;99.90
13686;DHT22;6915;48.296;8.874;2022-10-17T04:01:43;9.40;99.90
13686;DHT22;6915;48.296;8.874;2022-10-17T04:04:10;9.50;99.90
13686;DHT22;6915;48.296;8.874;2022-10-17T04:06:37;9.50;99.90
13686;DHT22;6915;48.296;8.874;2022-10-17T04:09:05;9.50;99.90
13686;DHT22;6915;48.296;8.874;2022-10-17T04:11:34;9.50;99.90
13686;DHT22;6915;48.296;8.874;2022-10-17T04:14:01;9.60;99.90
13686;DHT22;6915;48.296;8.874;2022-10-17T04:16:28;9.60;99.90
13686;DHT22;6915;48.296;8.874;2022-10-17T04:18:57;9.60;99.90
13686;DHT22;6915;48.296;8.874;2022-10-17T04:21:25;9.30;99.90
13686;DHT22;6915;48.296;8.874;2022-10-17T04:23:53;9.30;99.90
13686;DHT22;6915;48.296;8.874;2022-10-17T04:26:20;9.10;99.90
13686;DHT22;6915;48.296;8.874;2022-10-17T04:28:49;9.20;99.90
13686;DHT22;6915;48.296;8.874;2022-10-17T04:31:16;9.30;99.90
13686;DHT22;6915;48.296;8.874;2022-10-17T04:33:46;9.20;99.90
13686;DHT22;6915;48.296;8.874;2022-10-17T04:36:15;9.30;99.90
13686;DHT22;6915;48.296;8.874;2022-10-17T04:38:42;9.10;99.90
13686;DHT22;6915;48.296;8.874;2022-10-17T04:41:11;9.10;99.90
13686;DHT22;6915;48.296;8.874;2022-10-17T04:43:39;9.10;99.90
13686;DHT22;6915;48.296;8.874;2022-10-17T04:46:10;9.00;99.90
13686;DHT22;6915;48.296;8.874;2022-10-17T04:48:37;9.10;99.90
13686;DHT22;6915;48.296;8.874;2022-10-17T04:51:07;9.00;99.90
13686;DHT22;6915;48.296;8.874;2022-10-17T04:53:35;9.00;99.90
13686;DHT22;6915;48.296;8.874;2022-10-17T04:56:07;9.00;99.90
13686;DHT22;6915;48.296;8.874;2022-10-17T04:58:35;9.00;99.90
13686;DHT22;6915;48.296;8.874;2022-10-17T05:01:08;8.90;99.90
13686;DHT22;6915;48.296;8.874;2022-10-17T05:03:35;9.00;99.90
13686;DHT22;6915;48.296;8.874;2022-10-17T05:06:04;8.80;99.90
13686;DHT22;6915;48.296;8.874;2022-10-17T05:08:31;8.90;99.90
13686;DHT22;6915;48.296;8.874;2022-10-17T05:10:58;9.00;99.90
13686;DHT22;6915;48.296;8.874;2022-10-17T05:13:25;8.90;99.90
13686;DHT22;6915;48.296;8.874;2022-10-17T05:15:52;8.80;99.90
13686;DHT22;6915;48.296;8.874;2022-10-17T05:18:20;8.70;99.90
13686;DHT22;6915;48.296;8.874;2022-10-17T05:20:47;8.70;99.90
13686;DHT22;6915;48.296;8.874;2022-10-17T05:23:14;8.70;99.90
13686;DHT22;6915;48.296;8.874;2022-10-17T05:25:41;8.80;99.90
13686;DHT22;6915;48.296;8.874;2022-10-17T05:28:08;8.80;99.90
13686;DHT22;6915;48.296;8.874;2022-10-17T05:30:35;8.60;99.90
13686;DHT22;6915;48.296;8.874;2022-10-17T05:33:02;8.80;99.90
13686;DHT22;6915;48.296;8.874;2022-10-17T05:35:30;8.70;99.90
13686;DHT22;6915;48.296;8.874;2022-10-17T05:37:57;8.80;99.90
13686;DHT22;6915;48.296;8.874;2022-10-17T05:40:25;8.70;99.90
13686;DHT22;6915;48.296;8.874;2022-10-17T05:42:52;8.80;99.90
13686;DHT22;6915;48.296;8.874;2022-10-17T05:45:18;8.80;99.90
13686;DHT22;6915;48.296;8.874;2022-10-17T05:47:45;8.80;99.90
13686;DHT22;6915;48.296;8.874;2022-10-17T05:50:12;8.80;99.90
13686;DHT22;6915;48.296;8.874;2022-10-17T05:52:41;8.70;99.90
13686;DHT22;6915;48.296;8.874;2022-10-17T05:55:08;8.70;99.90
13686;DHT22;6915;48.296;8.874;2022-10-17T05:57:35;8.60;99.90
13686;DHT22;6915;48.296;8.874;2022-10-17T06:00:04;8.70;99.90
13686;DHT22;6915;48.296;8.874;2022-10-17T06:02:33;8.60;99.90
13686;DHT22;6915;48.296;8.874;2022-10-17T06:05:00;8.50;99.90
13686;DHT22;6915;48.296;8.874;2022-10-17T06:07:27;8.40;99.90
13686;DHT22;6915;48.296;8.874;2022-10-17T06:09:55;8.50;99.90
13686;DHT22;6915;48.296;8.874;2022-10-17T06:12:23;8.50;99.90
13686;DHT22;6915;48.296;8.874;2022-10-17T06:14:52;8.40;99.90
13686;DHT22;6915;48.296;8.874;2022-10-17T06:17:18;8.40;99.90
13686;DHT22;6915;48.296;8.874;2022-10-17T06:19:45;8.40;99.90
13686;DHT22;6915;48.296;8.874;2022-10-17T06:22:12;8.40;99.90
13686;DHT22;6915;48.296;8.874;2022-10-17T06:24:39;8.40;99.90
13686;DHT22;6915;48.296;8.874;2022-10-17T06:27:08;8.50;99.90
13686;DHT22;6915;48.296;8.874;2022-10-17T06:29:35;8.50;99.90
13686;DHT22;6915;48.296;8.874;2022-10-17T06:32:02;8.60;99.90
13686;DHT22;6915;48.296;8.874;2022-10-17T06:34:29;8.70;99.90
13686;DHT22;6915;48.296;8.874;2022-10-17T06:36:56;8.70;99.90
13686;DHT22;6915;48.296;8.874;2022-10-17T06:39:23;8.80;99.90
13686;DHT22;6915;48.296;8.874;2022-10-17T06:41:51;8.90;99.90
13686;DHT22;6915;48.296;8.874;2022-10-17T06:44:20;9.10;99.90
13686;DHT22;6915;48.296;8.874;2022-10-17T06:46:47;9.00;99.90
13686;DHT22;6915;48.296;8.874;2022-10-17T06:49:14;8.90;99.90
13686;DHT22;6915;48.296;8.874;2022-10-17T06:51:41;8.90;99.90
13686;DHT22;6915;48.296;8.874;2022-10-17T06:54:07;9.00;99.90
13686;DHT22;6915;48.296;8.874;2022-10-17T06:56:34;9.10;99.90
13686;DHT22;6915;48.296;8.874;2022-10-17T06:59:01;9.20;99.90
13686;DHT22;6915;48.296;8.874;2022-10-17T07:01:30;9.30;99.90
13686;DHT22;6915;48.296;8.874;2022-10-17T07:03:59;9.60;99.90
13686;DHT22;6915;48.296;8.874;2022-10-17T07:06:25;9.60;99.90
13686;DHT22;6915;48.296;8.874;2022-10-17T07:08:52;9.70;99.90
13686;DHT22;6915;48.296;8.874;2022-10-17T07:11:21;9.80;99.90
13686;DHT22;6915;48.296;8.874;2022-10-17T07:13:48;10.00;99.90
13686;DHT22;6915;48.296;8.874;2022-10-17T07:16:16;10.20;99.90
13686;DHT22;6915;48.296;8.874;2022-10-17T07:18:47;10.40;99.90
13686;DHT22;6915;48.296;8.874;2022-10-17T07:21:15;10.60;99.90
13686;DHT22;6915;48.296;8.874;2022-10-17T07:23:42;10.80;99.90
13686;DHT22;6915;48.296;8.874;2022-10-17T07:26:11;11.00;99.90
13686;DHT22;6915;48.296;8.874;2022-10-17T07:28:39;11.20;99.90
13686;DHT22;6915;48.296;8.874;2022-10-17T07:31:08;11.40;99.90
13686;DHT22;6915;48.296;8.874;2022-10-17T07:33:35;11.70;99.90
13686;DHT22;6915;48.296;8.874;2022-10-17T07:36:04;11.90;99.90
13686;DHT22;6915;48.296;8.874;2022-10-17T07:38:32;12.10;99.90
13686;DHT22;6915;48.296;8.874;2022-10-17T07:41:01;12.40;99.90
13686;DHT22;6915;48.296;8.874;2022-10-17T07:43:29;12.60;99.90
13686;DHT22;6915;48.296;8.874;2022-10-17T07:45:57;12.70;99.90
13686;DHT22;6915;48.296;8.874;2022-10-17T07:48:24;13.00;99.90
13686;DHT22;6915;48.296;8.874;2022-10-17T07:50:51;13.10;99.90
13686;DHT22;6915;48.296;8.874;2022-10-17T07:53:19;13.30;99.90
13686;DHT22;6915;48.296;8.874;2022-10-17T07:55:46;13.40;99.90
13686;DHT22;6915;48.296;8.874;2022-10-17T07:58:14;13.60;99.90
13686;DHT22;6915;48.296;8.874;2022-10-17T08:00:41;13.70;99.90
13686;DHT22;6915;48.296;8.874;2022-10-17T08:03:09;13.80;99.90
13686;DHT22;6915;48.296;8.874;2022-10-17T08:05:36;13.90;99.90
13686;DHT22;6915;48.296;8.874;2022-10-17T08:08:03;14.00;99.90
13686;DHT22;6915;48.296;8.874;2022-10-17T08:10:32;14.10;99.90
13686;DHT22;6915;48.296;8.874;2022-10-17T08:12:58;14.30;99.90
13686;DHT22;6915;48.296;8.874;2022-10-17T08:15:27;14.50;99.90
13686;DHT22;6915;48.296;8.874;2022-10-17T08:17:54;14.60;99.90
13686;DHT22;6915;48.296;8.874;2022-10-17T08:20:21;14.70;99.90
13686;DHT22;6915;48.296;8.874;2022-10-17T08:22:51;14.90;99.90
13686;DHT22;6915;48.296;8.874;2022-10-17T08:25:18;15.00;99.90
13686;DHT22;6915;48.296;8.874;2022-10-17T08:27:46;15.10;99.90
13686;DHT22;6915;48.296;8.874;2022-10-17T08:30:18;15.40;99.90
13686;DHT22;6915;48.296;8.874;2022-10-17T08:32:45;15.60;99.90
13686;DHT22;6915;48.296;8.874;2022-10-17T08:35:12;15.80;99.90
13686;DHT22;6915;48.296;8.874;2022-10-17T08:37:40;16.00;99.90
13686;DHT22;6915;48.296;8.874;2022-10-17T08:40:10;16.20;99.90
13686;DHT22;6915;48.296;8.874;2022-10-17T08:43:03;16.40;99.90
13686;DHT22;6915;48.296;8.874;2022-10-17T08:45:35;16.60;99.90
13686;DHT22;6915;48.296;8.874;2022-10-17T08:48:07;16.90;99.90
13686;DHT22;6915;48.296;8.874;2022-10-17T08:50:39;17.10;1.00
13686;DHT22;6915;48.296;8.874;2022-10-17T08:53:13;17.30;99.90
13686;DHT22;6915;48.296;8.874;2022-10-17T08:55:44;17.50;1.00
13686;DHT22;6915;48.296;8.874;2022-10-17T08:58:14;17.70;99.90
13686;DHT22;6915;48.296;8.874;2022-10-17T09:00:47;17.80;99.90
13686;DHT22;6915;48.296;8.874;2022-10-17T09:03:30;18.00;99.90
13686;DHT22;6915;48.296;8.874;2022-10-17T09:06:10;18.10;99.90
13686;DHT22;6915;48.296;8.874;2022-10-17T09:08:43;18.30;1.00
13686;DHT22;6915;48.296;8.874;2022-10-17T09:11:23;18.40;1.00
13686;DHT22;6915;48.296;8.874;2022-10-17T09:14:02;18.70;99.90
13686;DHT22;6915;48.296;8.874;2022-10-17T09:16:53;18.80;1.00
13686;DHT22;6915;48.296;8.874;2022-10-17T09:19:25;18.90;1.00
13686;DHT22;6915;48.296;8.874;2022-10-17T09:21:57;18.90;86.60
13686;DHT22;6915;48.296;8.874;2022-10-17T09:24:39;19.20;99.90
13686;DHT22;6915;48.296;8.874;2022-10-17T09:27:17;19.50;99.90
13686;DHT22;6915;48.296;8.874;2022-10-17T09:29:48;19.70;99.90
13686;DHT22;6915;48.296;8.874;2022-10-17T09:32:20;19.70;99.90
13686;DHT22;6915;48.296;8.874;2022-10-17T09:34:48;19.80;1.00
13686;DHT22;6915;48.296;8.874;2022-10-17T09:37:16;19.90;99.90
13686;DHT22;6915;48.296;8.874;2022-10-17T09:39:43;20.00;1.00
13686;DHT22;6915;48.296;8.874;2022-10-17T09:42:13;20.20;1.00
13686;DHT22;6915;48.296;8.874;2022-10-17T09:44:48;20.30;44.20
13686;DHT22;6915;48.296;8.874;2022-10-17T09:47:22;20.50;1.00
13686;DHT22;6915;48.296;8.874;2022-10-17T09:49:51;20.70;99.90
13686;DHT22;6915;48.296;8.874;2022-10-17T09:52:21;20.90;99.90
13686;DHT22;6915;48.296;8.874;2022-10-17T09:54:52;21.10;1.00
13686;DHT22;6915;48.296;8.874;2022-10-17T09:57:21;21.30;1.00
13686;DHT22;6915;48.296;8.874;2022-10-17T09:59:57;21.50;99.90
13686;DHT22;6915;48.296;8.874;2022-10-17T10:02:26;21.80;1.00
13686;DHT22;6915;48.296;8.874;2022-10-17T10:04:57;22.00;1.00
13686;DHT22;6915;48.296;8.874;2022-10-17T10:07:26;22.10;99.90
13686;DHT22;6915;48.296;8.874;2022-10-17T10:09:54;22.30;99.90
13686;DHT22;6915;48.296;8.874;2022-10-17T10:12:23;22.40;1.00
13686;DHT22;6915;48.296;8.874;2022-10-17T10:14:51;22.50;1.00
13686;DHT22;6915;48.296;8.874;2022-10-17T10:17:43;22.60;99.90
13686;DHT22;6915;48.296;8.874;2022-10-17T10:20:25;22.70;84.40
13686;DHT22;6915;48.296;8.874;2022-10-17T10:23:12;23.00;1.00
13686;DHT22;6915;48.296;8.874;2022-10-17T10:25:53;23.20;1.00
13686;DHT22;6915;48.296;8.874;2022-10-17T10:28:24;23.40;1.00
13686;DHT22;6915;48.296;8.874;2022-10-17T10:30:53;23.50;99.90
13686;DHT22;6915;48.296;8.874;2022-10-17T10:33:25;23.50;83.80
13686;DHT22;6915;48.296;8.874;2022-10-17T10:35:57;23.60;1.00
13686;DHT22;6915;48.296;8.874;2022-10-17T10:38:26;23.60;99.90
13686;DHT22;6915;48.296;8.874;2022-10-17T10:40:55;23.70;1.00
13686;DHT22;6915;48.296;8.874;2022-10-17T10:43:30;23.70;1.00
13686;DHT22;6915;48.296;8.874;2022-10-17T10:45:58;23.60;1.00
13686;DHT22;6915;48.296;8.874;2022-10-17T10:48:29;23.70;1.00
13686;DHT22;6915;48.296;8.874;2022-10-17T10:50:59;23.80;1.00
13686;DHT22;6915;48.296;8.874;2022-10-17T10:53:32;23.90;1.00
13686;DHT22;6915;48.296;8.874;2022-10-17T10:56:04;24.10;1.00
13686;DHT22;6915;48.296;8.874;2022-10-17T10:58:40;24.30;1.00
13686;DHT22;6915;48.296;8.874;2022-10-17T11:01:14;24.50;1.00
13686;DHT22;6915;48.296;8.874;2022-10-17T11:03:55;24.50;1.00
13686;DHT22;6915;48.296;8.874;2022-10-17T11:06:27;24.60;1.00
13686;DHT22;6915;48.296;8.874;2022-10-17T11:09:04;24.60;1.00
13686;DHT22;6915;48.296;8.874;2022-10-17T11:11:40;24.60;1.00
13686;DHT22;6915;48.296;8.874;2022-10-17T11:14:12;24.50;1.00
13686;DHT22;6915;48.296;8.874;2022-10-17T11:16:44;24.60;1.00
13686;DHT22;6915;48.296;8.874;2022-10-17T11:19:17;24.70;1.00
13686;DHT22;6915;48.296;8.874;2022-10-17T11:21:51;24.70;1.00
13686;DHT22;6915;48.296;8.874;2022-10-17T11:24:24;24.70;1.00
13686;DHT22;6915;48.296;8.874;2022-10-17T11:27:02;24.70;1.00
13686;DHT22;6915;48.296;8.874;2022-10-17T11:31:58;24.70;1.00
13686;DHT22;6915;48.296;8.874;2022-10-17T11:34:31;24.80;1.00
13686;DHT22;6915;48.296;8.874;2022-10-17T11:37:01;24.80;1.00
13686;DHT22;6915;48.296;8.874;2022-10-17T11:39:39;24.80;1.00
13686;DHT22;6915;48.296;8.874;2022-10-17T11:42:11;24.80;1.00
13686;DHT22;6915;48.296;8.874;2022-10-17T11:44:40;24.90;1.00
13686;DHT22;6915;48.296;8.874;2022-10-17T11:47:26;24.90;1.00
13686;DHT22;6915;48.296;8.874;2022-10-17T11:49:59;25.00;1.00
13686;DHT22;6915;48.296;8.874;2022-10-17T11:52:34;25.00;1.00
13686;DHT22;6915;48.296;8.874;2022-10-17T11:55:09;25.10;1.00
13686;DHT22;6915;48.296;8.874;2022-10-17T11:57:45;25.00;1.00
13686;DHT22;6915;48.296;8.874;2022-10-17T12:00:33;24.80;1.00
13686;DHT22;6915;48.296;8.874;2022-10-17T12:03:13;24.80;1.00
13686;DHT22;6915;48.296;8.874;2022-10-17T12:05:49;24.70;1.00
13686;DHT22;6915;48.296;8.874;2022-10-17T12:08:23;24.50;1.00
13686;DHT22;6915;48.296;8.874;2022-10-17T12:10:56;24.60;1.00
13686;DHT22;6915;48.296;8.874;2022-10-17T12:13:49;24.60;1.00
13686;DHT22;6915;48.296;8.874;2022-10-17T12:16:49;24.80;1.00
13686;DHT22;6915;48.296;8.874;2022-10-17T12:19:25;24.70;1.00
13686;DHT22;6915;48.296;8.874;2022-10-17T12:22:05;24.60;1.00
13686;DHT22;6915;48.296;8.874;2022-10-17T12:24:41;24.60;1.00
13686;DHT22;6915;48.296;8.874;2022-10-17T12:27:32;24.60;1.00
13686;DHT22;6915;48.296;8.874;2022-10-17T12:30:03;24.60;1.00
13686;DHT22;6915;48.296;8.874;2022-10-17T12:32:30;24.60;1.00
13686;DHT22;6915;48.296;8.874;2022-10-17T12:34:58;24.60;1.00
13686;DHT22;6915;48.296;8.874;2022-10-17T12:38:00;24.60;1.00
13686;DHT22;6915;48.296;8.874;2022-10-17T12:41:03;24.50;1.00
13686;DHT22;6915;48.296;8.874;2022-10-17T12:43:55;24.20;1.00
13686;DHT22;6915;48.296;8.874;2022-10-17T12:46:45;24.20;1.00
13686;DHT22;6915;48.296;8.874;2022-10-17T12:49:46;24.50;1.00
13686;DHT22;6915;48.296;8.874;2022-10-17T12:52:23;24.70;1.00
13686;DHT22;6915;48.296;8.874;2022-10-17T12:54:57;24.80;99.90
13686;DHT22;6915;48.296;8.874;2022-10-17T12:57:34;24.70;99.90
13686;DHT22;6915;48.296;8.874;2022-10-17T13:00:11;24.70;99.90
13686;DHT22;6915;48.296;8.874;2022-10-17T13:02:39;24.50;99.90
13686;DHT22;6915;48.296;8.874;2022-10-17T13:05:12;24.30;99.90
13686;DHT22;6915;48.296;8.874;2022-10-17T13:07:41;24.20;99.90
13686;DHT22;6915;48.296;8.874;2022-10-17T13:10:20;24.20;99.90
13686;DHT22;6915;48.296;8.874;2022-10-17T13:12:49;24.10;99.90
13686;DHT22;6915;48.296;8.874;2022-10-17T13:15:18;24.10;99.90
13686;DHT22;6915;48.296;8.874;2022-10-17T13:17:54;24.10;99.90
13686;DHT22;6915;48.296;8.874;2022-10-17T13:20:24;24.10;99.90
13686;DHT22;6915;48.296;8.874;2022-10-17T13:22:53;24.00;99.90
13686;DHT22;6915;48.296;8.874;2022-10-17T13:25:24;24.00;99.90
13686;DHT22;6915;48.296;8.874;2022-10-17T13:28:03;24.00;99.90
13686;DHT22;6915;48.296;8.874;2022-10-17T13:30:33;24.00;99.90
13686;DHT22;6915;48.296;8.874;2022-10-17T13:33:00;24.10;99.90
13686;DHT22;6915;48.296;8.874;2022-10-17T13:35:30;24.00;99.90
13686;DHT22;6915;48.296;8.874;2022-10-17T13:37:59;23.90;99.90
13686;DHT22;6915;48.296;8.874;2022-10-17T13:40:30;23.90;99.90
13686;DHT22;6915;48.296;8.874;2022-10-17T13:42:58;23.90;99.90
13686;DHT22;6915;48.296;8.874;2022-10-17T13:45:29;23.90;99.90
13686;DHT22;6915;48.296;8.874;2022-10-17T13:47:57;24.00;99.90
13686;DHT22;6915;48.296;8.874;2022-10-17T13:50:31;24.10;99.90
13686;DHT22;6915;48.296;8.874;2022-10-17T13:53:14;24.10;99.90
13686;DHT22;6915;48.296;8.874;2022-10-17T13:55:55;24.20;99.90
13686;DHT22;6915;48.296;8.874;2022-10-17T13:58:23;24.10;99.90
13686;DHT22;6915;48.296;8.874;2022-10-17T14:00:51;24.00;99.90
13686;DHT22;6915;48.296;8.874;2022-10-17T14:03:20;24.00;99.90
13686;DHT22;6915;48.296;8.874;2022-10-17T14:06:17;24.00;99.90
13686;DHT22;6915;48.296;8.874;2022-10-17T14:08:55;24.00;99.90
13686;DHT22;6915;48.296;8.874;2022-10-17T14:11:33;23.90;99.90
13686;DHT22;6915;48.296;8.874;2022-10-17T14:14:02;23.90;1.00
13686;DHT22;6915;48.296;8.874;2022-10-17T14:16:35;23.80;99.90
13686;DHT22;6915;48.296;8.874;2022-10-17T14:19:03;23.80;1.00
13686;DHT22;6915;48.296;8.874;2022-10-17T14:21:31;23.80;99.90
13686;DHT22;6915;48.296;8.874;2022-10-17T14:24:25;23.80;99.90
13686;DHT22;6915;48.296;8.874;2022-10-17T14:26:55;23.80;99.90
13686;DHT22;6915;48.296;8.874;2022-10-17T14:29:26;23.90;1.00
13686;DHT22;6915;48.296;8.874;2022-10-17T14:32:11;23.80;99.90
13686;DHT22;6915;48.296;8.874;2022-10-17T14:34:39;23.80;99.90
13686;DHT22;6915;48.296;8.874;2022-10-17T14:37:11;23.60;1.00
13686;DHT22;6915;48.296;8.874;2022-10-17T14:39:48;23.70;1.00
13686;DHT22;6915;48.296;8.874;2022-10-17T14:42:19;23.70;1.00
13686;DHT22;6915;48.296;8.874;2022-10-17T14:44:48;23.60;1.00
13686;DHT22;6915;48.296;8.874;2022-10-17T14:47:19;23.60;1.00
13686;DHT22;6915;48.296;8.874;2022-10-17T14:49:49;23.60;1.00
13686;DHT22;6915;48.296;8.874;2022-10-17T14:52:28;23.50;1.00
13686;DHT22;6915;48.296;8.874;2022-10-17T14:54:56;23.50;1.00
13686;DHT22;6915;48.296;8.874;2022-10-17T14:57:27;23.40;1.00
13686;DHT22;6915;48.296;8.874;2022-10-17T14:59:55;23.50;1.00
13686;DHT22;6915;48.296;8.874;2022-10-17T15:02:23;23.50;1.00
13686;DHT22;6915;48.296;8.874;2022-10-17T15:04:51;23.50;1.00
13686;DHT22;6915;48.296;8.874;2022-10-17T15:07:18;23.40;1.00
13686;DHT22;6915;48.296;8.874;2022-10-17T15:09:48;23.50;1.00
13686;DHT22;6915;48.296;8.874;2022-10-17T15:12:17;23.50;1.00
13686;DHT22;6915;48.296;8.874;2022-10-17T15:14:45;23.50;1.00
13686;DHT22;6915;48.296;8.874;2022-10-17T15:17:14;23.40;1.00
13686;DHT22;6915;48.296;8.874;2022-10-17T15:19:43;23.40;1.00
13686;DHT22;6915;48.296;8.874;2022-10-17T15:22:09;23.30;1.00
13686;DHT22;6915;48.296;8.874;2022-10-17T15:24:37;23.20;1.00
13686;DHT22;6915;48.296;8.874;2022-10-17T15:27:08;23.20;1.00
13686;DHT22;6915;48.296;8.874;2022-10-17T15:29:39;23.10;1.00
13686;DHT22;6915;48.296;8.874;2022-10-17T15:32:07;23.00;1.00
13686;DHT22;6915;48.296;8.874;2022-10-17T15:34:34;23.00;1.00
13686;DHT22;6915;48.296;8.874;2022-10-17T15:37:03;23.00;1.00
13686;DHT22;6915;48.296;8.874;2022-10-17T15:39:30;22.80;22.10
13686;DHT22;6915;48.296;8.874;2022-10-17T15:41:57;22.80;16.80
13686;DHT22;6915;48.296;8.874;2022-10-17T15:44:24;22.70;99.90
13686;DHT22;6915;48.296;8.874;2022-10-17T15:46:51;22.60;99.90
13686;DHT22;6915;48.296;8.874;2022-10-17T15:49:20;22.50;99.90
13686;DHT22;6915;48.296;8.874;2022-10-17T15:51:47;22.40;1.00
13686;DHT22;6915;48.296;8.874;2022-10-17T15:54:14;22.30;1.00
13686;DHT22;6915;48.296;8.874;2022-10-17T15:56:41;22.20;1.00
13686;DHT22;6915;48.296;8.874;2022-10-17T15:59:12;22.10;1.00
13686;DHT22;6915;48.296;8.874;2022-10-17T16:01:40;22.00;99.90
13686;DHT22;6915;48.296;8.874;2022-10-17T16:04:09;21.80;1.00
13686;DHT22;6915;48.296;8.874;2022-10-17T16:06:39;21.60;99.90
13686;DHT22;6915;48.296;8.874;2022-10-17T16:09:06;21.40;1.00
13686;DHT22;6915;48.296;8.874;2022-10-17T16:11:35;21.20;1.00
13686;DHT22;6915;48.296;8.874;2022-10-17T16:14:04;21.00;99.90
13686;DHT22;6915;48.296;8.874;2022-10-17T16:16:31;20.80;2.10
13686;DHT22;6915;48.296;8.874;2022-10-17T16:18:58;20.70;99.90
13686;DHT22;6915;48.296;8.874;2022-10-17T16:21:28;20.40;99.90